createdAt,value
2023-03-01T00:00:24.269Z,74.17
2023-03-01T00:03:32.865Z,73.75
2023-03-01T00:06:46.981Z,74.05
2023-03-01T00:09:55.145Z,73.37
2023-03-01T00:13:03.428Z,74.12
2023-03-01T00:16:15.187Z,73.52
2023-03-01T00:19:23.901Z,73.37
2023-03-01T00:22:33.399Z,73.46
2023-03-01T00:25:44.907Z,73.91
2023-03-01T00:28:57.327Z,73.84
2023-03-01T00:32:05.997Z,73.68
2023-03-01T00:35:14.192Z,73.27
2023-03-01T00:38:25.809Z,73.80
2023-03-01T00:41:35.573Z,72.95
2023-03-01T00:44:45.811Z,73.94
2023-03-01T00:47:55.280Z,73.01
2023-03-01T00:51:09.084Z,73.56
2023-03-01T00:54:19.862Z,73.77
2023-03-01T00:57:29.532Z,74.02
2023-03-01T01:00:37.724Z,73.98
2023-03-01T01:03:48.505Z,73.78
2023-03-01T01:06:56.842Z,74.07
2023-03-01T01:10:09.578Z,73.98
2023-03-01T01:13:17.940Z,73.53
2023-03-01T01:16:29.731Z,74.14
2023-03-01T01:19:38.335Z,73.57
2023-03-01T01:22:46.557Z,74.08
2023-03-01T01:25:56.123Z,73.79
2023-03-01T01:29:07.040Z,73.69
2023-03-01T01:32:15.325Z,73.04
2023-03-01T01:35:23.622Z,72.77
2023-03-01T01:38:32.441Z,73.29
2023-03-01T01:41:44.150Z,73.51
2023-03-01T01:45:34.072Z,73.92
2023-03-01T01:48:47.268Z,74.06
2023-03-01T01:52:07.139Z,73.50
2023-03-01T01:55:22.559Z,73.00
2023-03-01T01:58:32.918Z,74.13
2023-03-01T02:01:41.366Z,73.82
2023-03-01T02:04:55.196Z,73.48
2023-03-01T02:08:03.504Z,72.99
2023-03-01T02:11:15.614Z,73.77
2023-03-01T02:14:25.221Z,73.45
2023-03-01T02:17:34.632Z,73.57
2023-03-01T02:21:03.682Z,73.22
2023-03-01T02:24:24.978Z,73.61
2023-03-01T02:27:45.813Z,73.80
2023-03-01T02:31:13.843Z,73.42
2023-03-01T02:34:27.071Z,73.80
2023-03-01T02:37:38.463Z,73.86
2023-03-01T02:40:47.294Z,73.78
2023-03-01T02:43:55.553Z,74.34
2023-03-01T02:47:07.051Z,74.14
2023-03-01T02:50:41.766Z,74.42
2023-03-01T02:54:08.900Z,74.02
2023-03-01T02:57:17.834Z,73.99
2023-03-01T03:00:34.980Z,74.36
2023-03-01T03:03:45.730Z,74.05
2023-03-01T03:06:54.169Z,73.37
2023-03-01T03:10:02.852Z,74.15
2023-03-01T03:13:14.607Z,74.01
2023-03-01T03:16:24.554Z,73.15
2023-03-01T03:19:34.794Z,74.04
2023-03-01T03:22:43.101Z,73.93
2023-03-01T03:25:52.113Z,73.82
2023-03-01T03:29:00.502Z,73.58
2023-03-01T03:32:08.724Z,73.77
2023-03-01T03:35:18.489Z,73.38
2023-03-01T03:38:27.297Z,74.04
2023-03-01T03:41:37.263Z,73.58
2023-03-01T03:44:45.895Z,73.57
2023-03-01T03:47:54.242Z,74.11
2023-03-01T03:51:06.309Z,72.97
2023-03-01T03:54:14.564Z,73.27
2023-03-01T03:57:22.852Z,74.02
2023-03-01T04:00:31.520Z,73.92
2023-03-01T04:03:39.840Z,73.67
2023-03-01T04:06:49.547Z,74.09
2023-03-01T04:09:57.779Z,73.25
2023-03-01T04:13:07.025Z,74.45
2023-03-01T04:16:15.330Z,72.70
2023-03-01T04:19:23.522Z,72.70
2023-03-01T04:22:33.115Z,72.46
2023-03-01T04:25:43.314Z,72.90
2023-03-01T04:28:51.628Z,73.02
2023-03-01T04:32:00.179Z,72.48
2023-03-01T04:35:09.503Z,73.55
2023-03-01T04:38:20.227Z,72.94
2023-03-01T04:41:28.621Z,73.00
2023-03-01T04:44:36.822Z,73.49
2023-03-01T04:47:48.065Z,73.52
2023-03-01T04:50:56.319Z,73.01
2023-03-01T04:54:09.715Z,72.37
2023-03-01T04:57:18.381Z,72.97
2023-03-01T05:00:26.958Z,73.62
2023-03-01T05:03:35.158Z,73.25
2023-03-01T05:06:43.507Z,72.63
2023-03-01T05:09:55.087Z,74.08
2023-03-01T05:13:05.277Z,73.12
2023-03-01T05:16:13.568Z,73.15
2023-03-01T05:19:23.659Z,73.21
2023-03-01T05:22:32.021Z,73.20
2023-03-01T05:25:42.293Z,73.33
2023-03-01T05:28:50.974Z,73.45
2023-03-01T05:32:01.888Z,74.43
2023-03-01T05:35:14.131Z,72.97
2023-03-01T05:38:23.499Z,73.23
2023-03-01T05:41:32.938Z,73.54
2023-03-01T05:44:41.417Z,73.03
2023-03-01T05:47:51.523Z,74.13
2023-03-01T05:51:02.338Z,73.83
2023-03-01T05:54:10.504Z,73.41
2023-03-01T05:57:19.977Z,73.23
2023-03-01T06:00:28.935Z,73.95
2023-03-01T06:03:37.011Z,73.48
2023-03-01T06:06:45.228Z,72.88
2023-03-01T06:09:53.522Z,72.82
2023-03-01T06:13:03.154Z,73.77
2023-03-01T06:16:12.263Z,73.48
2023-03-01T06:19:20.441Z,73.92
2023-03-01T06:22:29.713Z,73.45
2023-03-01T06:25:38.026Z,73.72
2023-03-01T06:28:47.553Z,73.42
2023-03-01T06:31:55.960Z,73.51
2023-03-01T06:35:04.350Z,73.48
2023-03-01T06:38:12.971Z,73.92
2023-03-01T06:41:21.264Z,73.63
2023-03-01T06:44:31.059Z,72.55
2023-03-01T06:47:39.404Z,72.98
2023-03-01T06:50:47.643Z,72.60
2023-03-01T06:53:55.884Z,72.14
2023-03-01T06:57:04.371Z,72.65
2023-03-01T07:00:16.166Z,73.02
2023-03-01T07:03:24.988Z,71.70
2023-03-01T07:06:33.393Z,72.21
2023-03-01T07:09:42.054Z,71.86
2023-03-01T07:12:50.324Z,72.28
2023-03-01T07:16:00.390Z,71.71
2023-03-01T07:19:08.749Z,72.11
2023-03-01T07:22:17.087Z,72.19
2023-03-01T07:25:25.359Z,71.98
2023-03-01T07:28:36.909Z,71.54
2023-03-01T07:31:47.270Z,72.05
2023-03-01T07:34:56.259Z,72.27
2023-03-01T07:38:04.776Z,72.05
2023-03-01T07:41:13.107Z,72.13
2023-03-01T07:44:21.412Z,71.54
2023-03-01T07:47:30.984Z,72.02
2023-03-01T07:50:39.320Z,72.23
2023-03-01T07:53:49.099Z,71.61
2023-03-01T07:56:58.814Z,70.26
2023-03-01T08:00:09.423Z,70.09
2023-03-01T08:03:21.895Z,70.41
2023-03-01T08:06:30.388Z,70.13
2023-03-01T08:09:39.324Z,70.76
2023-03-01T08:12:49.094Z,70.38
2023-03-01T08:16:03.246Z,69.81
2023-03-01T08:19:14.266Z,68.98
2023-03-01T08:22:22.491Z,68.89
2023-03-01T08:25:30.722Z,67.58
2023-03-01T08:28:39.884Z,68.17
2023-03-01T08:31:48.641Z,67.36
2023-03-01T08:34:58.512Z,68.19
2023-03-01T08:38:06.828Z,68.33
2023-03-01T08:41:15.443Z,67.52
2023-03-01T08:44:23.664Z,66.80
2023-03-01T08:47:31.943Z,66.31
2023-03-01T08:50:42.489Z,66.41
2023-03-01T08:53:51.155Z,66.53
2023-03-01T08:57:00.109Z,66.31
2023-03-01T09:00:10.685Z,67.07
2023-03-01T09:03:18.872Z,65.97
2023-03-01T09:06:28.511Z,66.61
2023-03-01T09:09:37.293Z,66.64
2023-03-01T09:12:45.631Z,66.60
2023-03-01T09:15:53.855Z,65.27
2023-03-01T09:19:02.241Z,66.38
2023-03-01T09:22:11.842Z,65.98
2023-03-01T09:25:20.014Z,65.58
2023-03-01T09:28:30.335Z,64.74
2023-03-01T09:31:38.618Z,63.08
2023-03-01T09:35:05.993Z,61.81
2023-03-01T09:38:15.850Z,63.22
2023-03-01T09:41:45.548Z,63.45
2023-03-01T09:45:02.061Z,64.05
2023-03-01T09:48:20.328Z,63.93
2023-03-01T09:51:33.291Z,64.00
2023-03-01T09:54:42.876Z,62.85
2023-03-01T09:57:57.644Z,62.66
2023-03-01T10:01:32.658Z,63.64
2023-03-01T10:04:49.636Z,61.43
2023-03-01T10:08:26.274Z,61.87
2023-03-01T10:11:40.766Z,61.36
2023-03-01T10:15:03.439Z,62.46
2023-03-01T10:18:19.697Z,62.13
2023-03-01T10:21:32.705Z,62.15
2023-03-01T10:24:41.280Z,62.96
2023-03-01T10:27:56.092Z,60.82
2023-03-01T10:31:05.060Z,61.23
2023-03-01T10:34:24.130Z,61.30
2023-03-01T10:37:32.418Z,62.63
2023-03-01T10:40:58.039Z,63.35
2023-03-01T10:44:38.252Z,63.71
2023-03-01T10:47:46.513Z,63.42
2023-03-01T10:51:09.567Z,62.36
2023-03-01T10:54:22.885Z,61.24
2023-03-01T10:57:42.343Z,60.17
2023-03-01T11:00:55.392Z,59.37
2023-03-01T11:04:14.627Z,62.53
2023-03-01T11:07:24.694Z,63.32
2023-03-01T11:10:36.612Z,59.99
2023-03-01T11:13:58.709Z,58.91
2023-03-01T11:17:24.692Z,58.47
2023-03-01T11:20:38.249Z,57.15
2023-03-01T11:23:49.026Z,59.74
2023-03-01T11:26:58.693Z,60.13
2023-03-01T11:30:20.187Z,60.79
2023-03-01T11:33:41.814Z,58.90
2023-03-01T11:36:56.175Z,60.85
2023-03-01T11:40:26.237Z,63.25
2023-03-01T11:43:46.546Z,62.49
2023-03-01T11:47:21.857Z,63.82
2023-03-01T11:50:43.147Z,62.85
2023-03-01T11:54:15.460Z,63.43
2023-03-01T11:57:52.703Z,63.85
2023-03-01T12:01:21.907Z,63.67
2023-03-01T12:05:01.692Z,63.28
2023-03-01T12:08:22.671Z,62.21
2023-03-01T12:11:57.517Z,62.94
2023-03-01T12:15:45.227Z,62.16
2023-03-01T12:19:17.979Z,63.34
2023-03-01T12:22:33.734Z,62.21
2023-03-01T12:25:49.859Z,61.02
2023-03-01T12:29:21.591Z,61.71
2023-03-01T12:32:54.087Z,60.43
2023-03-01T12:36:55.523Z,60.06
2023-03-01T12:40:35.067Z,59.84
2023-03-01T12:44:03.344Z,59.46
2023-03-01T12:47:32.009Z,59.83
2023-03-01T12:50:47.783Z,60.66
2023-03-01T12:54:01.391Z,61.01
2023-03-01T12:57:20.282Z,60.75
2023-03-01T13:00:41.876Z,60.68
2023-03-01T13:04:18.029Z,60.61
2023-03-01T13:07:37.398Z,61.34
2023-03-01T13:10:52.447Z,60.33
2023-03-01T13:14:47.110Z,60.41
2023-03-01T13:17:59.488Z,60.52
2023-03-01T13:21:08.261Z,61.03
2023-03-01T13:24:30.639Z,61.26
2023-03-01T13:27:38.924Z,61.27
2023-03-01T13:30:47.350Z,61.47
2023-03-01T13:33:59.177Z,61.35
2023-03-01T13:37:12.916Z,61.35
2023-03-01T13:41:01.761Z,61.57
2023-03-01T13:44:23.714Z,61.05
2023-03-01T13:47:34.736Z,61.51
2023-03-01T13:50:53.778Z,60.79
2023-03-01T13:54:02.215Z,61.30
2023-03-01T13:57:29.565Z,61.08
2023-03-01T14:00:41.565Z,61.21
2023-03-01T14:03:50.517Z,61.28
2023-03-01T14:07:15.357Z,60.17
2023-03-01T14:10:25.114Z,61.31
2023-03-01T14:13:54.076Z,61.63
2023-03-01T14:17:40.739Z,61.53
2023-03-01T14:20:53.636Z,61.83
2023-03-01T14:24:03.445Z,61.66
2023-03-01T14:27:14.622Z,62.96
2023-03-01T14:30:27.381Z,62.37
2023-03-01T14:33:40.502Z,62.46
2023-03-01T14:36:48.961Z,62.33
2023-03-01T14:40:00.547Z,62.50
2023-03-01T14:43:20.321Z,61.80
2023-03-01T14:46:35.739Z,62.28
2023-03-01T14:49:45.533Z,62.82
2023-03-01T14:52:58.130Z,62.89
2023-03-01T14:56:15.282Z,62.24
2023-03-01T14:59:25.513Z,62.40
2023-03-01T15:02:35.235Z,62.17
2023-03-01T15:05:46.724Z,62.97
2023-03-01T15:08:58.244Z,63.35
2023-03-01T15:12:43.551Z,63.38
2023-03-01T15:15:55.561Z,63.56
2023-03-01T15:19:07.241Z,63.95
2023-03-01T15:22:18.874Z,64.05
2023-03-01T15:25:30.577Z,64.78
2023-03-01T15:28:52.105Z,65.91
2023-03-01T15:32:04.892Z,66.31
2023-03-01T15:35:42.555Z,66.30
2023-03-01T15:38:57.564Z,67.95
2023-03-01T15:42:08.883Z,67.83
2023-03-01T15:45:28.225Z,67.77
2023-03-01T15:48:36.628Z,67.89
2023-03-01T15:51:45.050Z,67.59
2023-03-01T15:54:53.309Z,67.76
2023-03-01T15:58:05.963Z,67.90
2023-03-01T16:01:19.026Z,68.22
2023-03-01T16:04:27.512Z,68.69
2023-03-01T16:07:40.612Z,69.51
2023-03-01T16:10:50.882Z,69.31
2023-03-01T16:13:59.350Z,69.99
2023-03-01T16:17:11.075Z,69.85
2023-03-01T16:20:27.892Z,70.33
2023-03-01T16:23:36.955Z,70.67
2023-03-01T16:26:45.064Z,71.94
2023-03-01T16:29:53.303Z,73.53
2023-03-01T16:33:06.281Z,73.49
2023-03-01T16:36:21.875Z,73.34
2023-03-01T16:39:30.170Z,73.57
2023-03-01T16:42:40.572Z,73.79
2023-03-01T16:45:49.172Z,74.00
2023-03-01T16:48:59.109Z,76.06
2023-03-01T16:52:07.272Z,75.60
2023-03-01T16:55:15.538Z,75.56
2023-03-01T16:58:25.589Z,75.72
2023-03-01T17:01:40.393Z,76.52
2023-03-01T17:04:55.090Z,76.73
2023-03-01T17:08:03.429Z,76.26
2023-03-01T17:11:15.193Z,77.25
2023-03-01T17:14:23.354Z,77.22
2023-03-01T17:17:31.688Z,78.04
2023-03-01T17:20:41.249Z,77.45
2023-03-01T17:23:50.356Z,77.39
2023-03-01T17:26:58.523Z,78.76
2023-03-01T17:30:09.947Z,78.55
2023-03-01T17:33:19.372Z,79.30
2023-03-01T17:36:29.129Z,78.95
2023-03-01T17:39:37.980Z,79.28
2023-03-01T17:42:46.379Z,80.14
2023-03-01T17:45:54.700Z,79.17
2023-03-01T17:49:03.152Z,80.10
2023-03-01T17:52:16.039Z,79.88
2023-03-01T17:55:24.488Z,80.01
2023-03-01T17:58:33.581Z,80.54
2023-03-01T18:01:43.612Z,80.48
2023-03-01T18:04:52.059Z,80.66
2023-03-01T18:08:02.471Z,80.93
2023-03-01T18:11:10.932Z,80.68
2023-03-01T18:14:19.050Z,81.07
2023-03-01T18:17:28.811Z,81.26
2023-03-01T18:20:37.735Z,80.99
2023-03-01T18:23:48.188Z,81.22
2023-03-01T18:26:56.705Z,81.58
2023-03-01T18:30:09.849Z,82.67
2023-03-01T18:33:18.385Z,81.68
2023-03-01T18:36:29.247Z,82.81
2023-03-01T18:39:39.366Z,83.00
2023-03-01T18:42:47.787Z,83.08
2023-03-01T18:45:59.006Z,84.52
2023-03-01T18:49:08.317Z,84.16
2023-03-01T18:52:16.733Z,83.98
2023-03-01T18:55:26.266Z,84.00
2023-03-01T18:58:35.141Z,83.66
2023-03-01T19:01:44.735Z,84.35
2023-03-01T19:04:53.201Z,83.19
2023-03-01T19:08:01.521Z,83.43
2023-03-01T19:11:13.278Z,82.77
2023-03-01T19:14:21.544Z,82.45
2023-03-01T19:17:31.384Z,83.04
2023-03-01T19:20:40.504Z,83.14
2023-03-01T19:23:49.670Z,83.35
2023-03-01T19:26:59.445Z,83.92
2023-03-01T19:30:10.083Z,83.46
2023-03-01T19:33:18.424Z,83.15
2023-03-01T19:36:33.478Z,83.26
2023-03-01T19:39:43.438Z,82.61
2023-03-01T19:42:52.974Z,82.57
2023-03-01T19:46:01.331Z,83.11
2023-03-01T19:49:09.811Z,84.47
2023-03-01T19:52:18.444Z,84.18
2023-03-01T19:55:26.831Z,84.53
2023-03-01T19:58:37.104Z,83.43
2023-03-01T20:01:45.572Z,83.23
2023-03-01T20:04:53.750Z,83.65
2023-03-01T20:08:02.304Z,84.23
2023-03-01T20:11:14.067Z,83.84
2023-03-01T20:14:24.401Z,83.86
2023-03-01T20:17:32.838Z,84.12
2023-03-01T20:20:41.039Z,84.26
2023-03-01T20:23:49.637Z,83.99
2023-03-01T20:26:57.805Z,84.13
2023-03-01T20:30:10.373Z,83.36
2023-03-01T20:33:18.922Z,83.45
2023-03-01T20:36:28.815Z,83.38
2023-03-01T20:39:37.408Z,83.80
2023-03-01T20:42:45.590Z,83.93
2023-03-01T20:45:55.452Z,83.68
2023-03-01T20:49:04.994Z,83.67
2023-03-01T20:52:13.203Z,84.19
2023-03-01T20:55:21.978Z,83.61
2023-03-01T20:58:32.819Z,83.23
2023-03-01T21:01:42.741Z,83.42
2023-03-01T21:04:50.970Z,83.52
2023-03-01T21:08:02.402Z,83.30
2023-03-01T21:11:11.040Z,83.62
2023-03-01T21:14:19.498Z,83.57
2023-03-01T21:17:29.127Z,84.04
2023-03-01T21:24:10.115Z,83.62
2023-03-01T21:27:19.766Z,83.33
2023-03-01T21:30:28.103Z,83.28
2023-03-01T21:33:38.835Z,83.41
2023-03-01T21:36:47.249Z,83.60
2023-03-01T21:39:57.072Z,83.42
2023-03-01T21:43:05.338Z,83.75
2023-03-01T21:46:17.249Z,83.74
2023-03-01T21:49:28.368Z,83.18
2023-03-01T21:52:36.697Z,83.23
2023-03-01T21:55:49.144Z,84.00
2023-03-01T21:58:59.670Z,82.59
2023-03-01T22:02:09.292Z,83.25
2023-03-01T22:05:19.317Z,82.33
2023-03-01T22:08:29.527Z,82.51
2023-03-01T22:11:41.767Z,82.39
2023-03-01T22:14:50.999Z,82.17
2023-03-01T22:18:00.264Z,82.06
2023-03-01T22:21:11.113Z,81.71
2023-03-01T22:24:23.081Z,81.84
2023-03-01T22:27:31.583Z,83.09
2023-03-01T22:30:39.897Z,82.76
2023-03-01T22:33:48.514Z,83.19
2023-03-01T22:37:01.733Z,83.93
2023-03-01T22:40:11.836Z,85.15
2023-03-01T22:43:19.952Z,85.68
2023-03-01T22:46:29.220Z,84.89
2023-03-01T22:49:38.174Z,85.41
2023-03-01T22:52:47.741Z,84.30
2023-03-01T22:55:56.149Z,84.84
2023-03-01T22:59:09.775Z,84.42
2023-03-01T23:02:18.370Z,84.32
2023-03-01T23:05:26.980Z,85.51
2023-03-01T23:08:37.475Z,84.99
2023-03-01T23:11:46.132Z,84.37
2023-03-01T23:14:54.335Z,84.33
2023-03-01T23:18:02.753Z,84.35
2023-03-01T23:21:14.077Z,84.73
2023-03-01T23:24:31.809Z,84.47
2023-03-01T23:27:40.846Z,84.64
2023-03-01T23:30:56.431Z,84.22
2023-03-01T23:34:05.166Z,84.09
2023-03-01T23:37:13.266Z,84.67
2023-03-01T23:40:22.856Z,84.90
2023-03-01T23:43:33.385Z,83.85
2023-03-01T23:46:43.028Z,84.05
2023-03-01T23:49:51.753Z,83.30
2023-03-01T23:53:00.098Z,83.59
2023-03-01T23:56:14.503Z,83.71
2023-03-01T23:59:24.826Z,83.69
